createdAt,value
2017-11-18T00:00:47.720Z,101873
2017-11-18T00:03:15.935Z,101870
2017-11-18T00:05:44.384Z,101858
2017-11-18T00:08:12.592Z,101847
2017-11-18T00:10:40.842Z,101840
2017-11-18T00:13:09.055Z,101835
2017-11-18T00:15:38.029Z,101837
2017-11-18T00:18:06.227Z,101834
2017-11-18T00:20:35.288Z,101835
2017-11-18T00:23:03.550Z,101834
2017-11-18T00:25:31.764Z,101826
2017-11-18T00:28:00.746Z,101823
2017-11-18T00:30:29.070Z,101824
2017-11-18T00:32:57.268Z,101817
2017-11-18T00:35:25.524Z,101808
2017-11-18T00:37:53.746Z,101815
2017-11-18T00:40:21.959Z,101811
2017-11-18T00:42:50.157Z,101809
2017-11-18T00:45:18.453Z,101800
2017-11-18T00:47:46.676Z,101810
2017-11-18T00:50:14.890Z,101824
2017-11-18T00:52:43.216Z,101815
2017-11-18T00:55:11.516Z,101815
2017-11-18T00:57:40.400Z,101809
2017-11-18T01:00:09.492Z,101809
2017-11-18T01:02:38.122Z,101805
2017-11-18T01:05:06.315Z,101810
2017-11-18T01:07:35.284Z,101801
2017-11-18T01:10:03.494Z,101787
2017-11-18T01:12:32.452Z,101789
2017-11-18T01:15:00.664Z,101777
2017-11-18T01:17:29.636Z,101773
2017-11-18T01:19:57.845Z,101780
2017-11-18T01:22:26.045Z,101767
2017-11-18T01:24:54.258Z,101772
2017-11-18T01:27:23.241Z,101766
2017-11-18T01:29:51.545Z,101757
2017-11-18T01:32:20.517Z,101749
2017-11-18T01:34:48.952Z,101750
2017-11-18T01:37:17.166Z,101733
2017-11-18T01:39:45.697Z,101731
2017-11-18T01:42:13.904Z,101725
2017-11-18T01:44:42.131Z,101729
2017-11-18T01:47:10.405Z,101718
2017-11-18T01:49:38.609Z,101713
2017-11-18T01:52:06.823Z,101705
2017-11-18T01:54:35.962Z,101708
2017-11-18T01:57:04.442Z,101711
2017-11-18T01:59:32.726Z,101707
2017-11-18T02:02:01.043Z,101709
2017-11-18T02:04:30.113Z,101709
2017-11-18T02:06:58.368Z,101704
2017-11-18T02:09:26.695Z,101695
2017-11-18T02:11:55.660Z,101701
2017-11-18T02:14:23.856Z,101686
2017-11-18T02:16:52.076Z,101676
2017-11-18T02:19:20.933Z,101673
2017-11-18T02:21:49.912Z,101664
2017-11-18T02:24:36.650Z,101659
2017-11-18T02:27:04.919Z,101647
2017-11-18T02:29:33.120Z,101643
2017-11-18T02:32:01.396Z,101645
2017-11-18T02:34:29.580Z,101637
2017-11-18T02:36:57.939Z,101633
2017-11-18T02:39:26.145Z,101638
2017-11-18T02:41:54.357Z,101620
2017-11-18T02:44:23.376Z,101612
2017-11-18T02:46:51.691Z,101614
2017-11-18T02:49:19.885Z,101606
2017-11-18T02:51:48.836Z,101608
2017-11-18T02:54:17.035Z,101608
2017-11-18T02:56:45.267Z,101590
2017-11-18T02:59:13.483Z,101589
2017-11-18T03:01:41.695Z,101569
2017-11-18T03:04:09.922Z,101568
2017-11-18T03:06:38.178Z,101567
2017-11-18T03:09:06.435Z,101560
2017-11-18T03:11:34.676Z,101558
2017-11-18T03:14:02.985Z,101556
2017-11-18T03:16:31.246Z,101540
2017-11-18T03:18:59.473Z,101546
2017-11-18T03:21:27.674Z,101537
2017-11-18T03:23:56.643Z,101534
2017-11-18T03:26:24.860Z,101536
2017-11-18T03:28:53.109Z,101533
2017-11-18T03:31:22.097Z,101517
2017-11-18T03:33:50.302Z,101515
2017-11-18T03:36:18.507Z,101511
2017-11-18T03:38:47.507Z,101513
2017-11-18T03:41:15.785Z,101500
2017-11-18T03:43:44.009Z,101498
2017-11-18T03:46:12.976Z,101491
2017-11-18T03:48:41.188Z,101481
2017-11-18T03:51:09.422Z,101470
2017-11-18T03:53:37.636Z,101485
2017-11-18T03:56:05.842Z,101475
2017-11-18T03:58:34.049Z,101468
2017-11-18T04:01:03.028Z,101467
2017-11-18T04:03:31.260Z,101462
2017-11-18T04:05:59.478Z,101453
2017-11-18T04:08:27.693Z,101450
2017-11-18T04:10:55.917Z,101450
2017-11-18T04:13:25.042Z,101441
2017-11-18T04:15:54.015Z,101445
2017-11-18T04:18:22.251Z,101438
2017-11-18T04:20:50.475Z,101421
2017-11-18T04:23:18.708Z,101427
2017-11-18T04:25:47.078Z,101425
2017-11-18T04:28:15.287Z,101428
2017-11-18T04:30:43.492Z,101416
2017-11-18T04:33:12.530Z,101409
2017-11-18T04:35:40.728Z,101406
2017-11-18T04:38:08.940Z,101410
2017-11-18T04:40:37.127Z,101398
2017-11-18T04:43:05.316Z,101395
2017-11-18T04:45:33.525Z,101398
2017-11-18T04:48:01.762Z,101394
2017-11-18T04:50:30.000Z,101382
2017-11-18T04:52:58.980Z,101374
2017-11-18T04:55:27.947Z,101364
2017-11-18T04:57:56.138Z,101370
2017-11-18T05:00:24.323Z,101377
2017-11-18T05:02:53.281Z,101371
2017-11-18T05:05:21.494Z,101356
2017-11-18T05:07:50.623Z,101355
2017-11-18T05:10:18.820Z,101349
2017-11-18T05:12:47.065Z,101346
2017-11-18T05:15:15.288Z,101351
2017-11-18T05:17:43.493Z,101340
2017-11-18T05:20:12.485Z,101337
2017-11-18T05:22:41.451Z,101339
2017-11-18T05:25:09.663Z,101327
2017-11-18T05:27:37.863Z,101324
2017-11-18T05:30:06.050Z,101322
2017-11-18T05:32:34.272Z,101310
2017-11-18T05:35:02.616Z,101297
2017-11-18T05:37:30.825Z,101297
2017-11-18T05:39:59.039Z,101305
2017-11-18T05:42:27.274Z,101291
2017-11-18T05:44:55.470Z,101291
2017-11-18T05:47:23.723Z,101297
2017-11-18T05:49:51.928Z,101289
2017-11-18T05:52:20.142Z,101279
2017-11-18T05:54:48.370Z,101285
2017-11-18T05:57:16.601Z,101273
2017-11-18T05:59:45.563Z,101274
2017-11-18T06:02:13.751Z,101273
2017-11-18T06:04:41.983Z,101275
2017-11-18T06:07:10.230Z,101265
2017-11-18T06:09:38.444Z,101265
2017-11-18T06:12:06.681Z,101265
2017-11-18T06:14:34.895Z,101260
2017-11-18T06:17:03.161Z,101247
2017-11-18T06:19:31.437Z,101254
2017-11-18T06:21:59.650Z,101248
2017-11-18T06:24:27.870Z,101244
2017-11-18T06:26:56.141Z,101232
2017-11-18T06:29:24.359Z,101229
2017-11-18T06:31:52.627Z,101225
2017-11-18T06:34:20.840Z,101233
2017-11-18T06:36:49.664Z,101227
2017-11-18T06:39:18.556Z,101218
2017-11-18T06:41:47.092Z,101211
2017-11-18T06:44:16.215Z,101217
2017-11-18T06:46:45.196Z,101202
2017-11-18T06:49:13.420Z,101203
2017-11-18T06:51:41.663Z,101195
2017-11-18T06:54:09.910Z,101198
2017-11-18T06:56:38.880Z,101199
2017-11-18T06:59:07.168Z,101192
2017-11-18T07:01:36.155Z,101192
2017-11-18T07:04:05.173Z,101191
2017-11-18T07:06:33.401Z,101184
2017-11-18T07:09:01.692Z,101177
2017-11-18T07:11:30.114Z,101181
2017-11-18T07:14:00.118Z,101171
2017-11-18T07:16:28.414Z,101170
2017-11-18T07:18:56.680Z,101172
2017-11-18T07:21:24.912Z,101150
2017-11-18T07:23:54.030Z,101144
2017-11-18T07:26:23.042Z,101149
2017-11-18T07:28:51.312Z,101145
2017-11-18T07:31:19.711Z,101140
2017-11-18T07:33:48.884Z,101143
2017-11-18T07:36:20.903Z,101134
2017-11-18T07:38:50.275Z,101134
2017-11-18T07:41:18.651Z,101140
2017-11-18T07:43:46.925Z,101121
2017-11-18T07:46:15.153Z,101119
2017-11-18T07:48:46.223Z,101127
2017-11-18T07:51:14.520Z,101115
2017-11-18T07:53:47.338Z,101117
2017-11-18T07:56:16.372Z,101109
2017-11-18T07:58:44.610Z,101113
2017-11-18T08:01:13.644Z,101102
2017-11-18T08:03:41.966Z,101101
2017-11-18T08:06:10.963Z,101099
2017-11-18T08:08:39.807Z,101095
2017-11-18T08:11:08.205Z,101084
2017-11-18T08:13:37.268Z,101083
2017-11-18T08:16:06.440Z,101089
2017-11-18T08:18:39.631Z,101090
2017-11-18T08:21:07.928Z,101091
2017-11-18T08:23:36.716Z,101075
2017-11-18T08:26:05.271Z,101071
2017-11-18T08:28:35.144Z,101065
2017-11-18T08:31:03.392Z,101061
2017-11-18T08:33:31.675Z,101060
2017-11-18T08:36:17.712Z,101039
2017-11-18T08:38:46.096Z,101045
2017-11-18T08:41:15.380Z,101031
2017-11-18T08:43:43.624Z,101033
2017-11-18T08:46:11.897Z,101026
2017-11-18T08:48:40.901Z,101021
2017-11-18T08:51:09.176Z,101002
2017-11-18T08:53:37.491Z,101008
2017-11-18T08:56:11.746Z,100997
2017-11-18T08:58:40.010Z,100990
2017-11-18T09:01:08.257Z,101005
2017-11-18T09:03:40.979Z,100996
2017-11-18T09:06:09.268Z,100994
2017-11-18T09:08:37.509Z,100988
2017-11-18T09:11:05.761Z,100968
2017-11-18T09:13:34.735Z,100995
2017-11-18T09:16:02.991Z,100976
2017-11-18T09:18:31.397Z,100975
2017-11-18T09:21:00.153Z,100965
2017-11-18T09:23:28.427Z,100962
2017-11-18T09:25:56.997Z,100963
2017-11-18T09:28:25.262Z,100957
2017-11-18T09:30:53.517Z,100961
2017-11-18T09:33:21.760Z,100965
2017-11-18T09:35:49.992Z,100941
2017-11-18T09:38:18.212Z,100940
2017-11-18T09:40:46.436Z,100939
2017-11-18T09:43:15.439Z,100934
2017-11-18T09:45:43.813Z,100938
2017-11-18T09:48:12.119Z,100938
2017-11-18T09:50:40.317Z,100924
2017-11-18T09:53:09.288Z,100913
2017-11-18T09:55:37.516Z,100907
2017-11-18T09:58:05.777Z,100879
2017-11-18T10:00:34.062Z,100883
2017-11-18T10:03:02.292Z,100879
2017-11-18T10:05:30.510Z,100867
2017-11-18T10:07:59.795Z,100860
2017-11-18T10:10:28.098Z,100856
2017-11-18T10:12:56.371Z,100848
2017-11-18T10:15:24.696Z,100834
2017-11-18T10:17:52.935Z,100843
2017-11-18T10:20:21.177Z,100844
2017-11-18T10:22:51.094Z,100813
2017-11-18T10:25:19.503Z,100800
2017-11-18T10:27:48.624Z,100804
2017-11-18T10:30:16.938Z,100796
2017-11-18T10:32:45.171Z,100791
2017-11-18T10:35:13.391Z,100785
2017-11-18T10:37:41.617Z,100782
2017-11-18T10:40:09.804Z,100782
2017-11-18T10:42:38.113Z,100791
2017-11-18T10:45:07.145Z,100799
2017-11-18T10:47:35.385Z,100795
2017-11-18T10:50:04.164Z,100791
2017-11-18T10:52:32.415Z,100792
2017-11-18T10:55:01.397Z,100787
2017-11-18T10:57:29.632Z,100781
2017-11-18T10:59:57.875Z,100773
2017-11-18T11:02:26.075Z,100778
2017-11-18T11:04:54.296Z,100786
2017-11-18T11:07:22.513Z,100796
2017-11-18T11:09:50.733Z,100793
2017-11-18T11:12:18.941Z,100812
2017-11-18T11:14:47.931Z,100801
2017-11-18T11:17:16.912Z,100813
2017-11-18T11:19:45.874Z,100836
2017-11-18T11:22:14.095Z,100833
2017-11-18T11:24:42.308Z,100843
2017-11-18T11:27:11.290Z,100843
2017-11-18T11:29:39.513Z,100856
2017-11-18T11:32:08.493Z,100865
2017-11-18T11:34:36.739Z,100871
2017-11-18T11:37:05.006Z,100871
2017-11-18T11:39:33.217Z,100881
2017-11-18T11:42:01.484Z,100900
2017-11-18T11:44:29.812Z,100883
2017-11-18T11:46:58.035Z,100885
2017-11-18T11:49:26.287Z,100897
2017-11-18T11:51:54.523Z,100898
2017-11-18T11:54:23.479Z,100899
2017-11-18T11:56:51.690Z,100900
2017-11-18T11:59:19.880Z,100904
2017-11-18T12:01:48.142Z,100895
2017-11-18T12:04:16.425Z,100893
2017-11-18T12:06:44.637Z,100900
2017-11-18T12:09:14.512Z,100889
2017-11-18T12:11:42.820Z,100896
2017-11-18T12:14:11.107Z,100889
2017-11-18T12:16:39.366Z,100898
2017-11-18T12:19:07.629Z,100894
2017-11-18T12:21:35.957Z,100897
2017-11-18T12:24:04.990Z,100887
2017-11-18T12:26:33.241Z,100872
2017-11-18T12:29:01.462Z,100865
2017-11-18T12:31:29.701Z,100849
2017-11-18T12:33:57.941Z,100845
2017-11-18T12:36:26.136Z,100852
2017-11-18T12:38:55.121Z,100828
2017-11-18T12:41:24.197Z,100801
2017-11-18T12:43:52.431Z,100782
2017-11-18T12:46:20.658Z,100803
2017-11-18T12:48:49.682Z,100790
2017-11-18T12:51:17.872Z,100803
2017-11-18T12:53:46.120Z,100816
2017-11-18T12:56:14.313Z,100812
2017-11-18T12:58:42.531Z,100815
2017-11-18T13:01:10.770Z,100814
2017-11-18T13:03:38.971Z,100798
2017-11-18T13:06:07.192Z,100789
2017-11-18T13:08:35.421Z,100787
2017-11-18T13:11:03.660Z,100779
2017-11-18T13:13:31.886Z,100783
2017-11-18T13:16:00.099Z,100789
2017-11-18T13:18:28.328Z,100786
2017-11-18T13:20:56.571Z,100787
2017-11-18T13:25:59.287Z,100781
2017-11-18T13:28:27.497Z,100788
2017-11-18T13:30:56.490Z,100787
2017-11-18T13:33:24.793Z,100794
2017-11-18T13:35:53.000Z,100788
2017-11-18T13:38:21.252Z,100791
2017-11-18T13:40:49.465Z,100803
2017-11-18T13:43:17.682Z,100812
2017-11-18T13:45:45.913Z,100814
2017-11-18T13:48:14.185Z,100815
2017-11-18T13:50:42.392Z,100815
2017-11-18T13:53:10.608Z,100814
2017-11-18T13:55:38.824Z,100822
2017-11-18T13:58:07.821Z,100821
2017-11-18T14:00:36.892Z,100818
2017-11-18T14:03:05.219Z,100818
2017-11-18T14:05:33.407Z,100825
2017-11-18T14:08:01.626Z,100827
2017-11-18T14:10:30.658Z,100833
2017-11-18T14:12:58.867Z,100828
2017-11-18T14:15:27.124Z,100819
2017-11-18T14:17:55.354Z,100826
2017-11-18T14:20:25.816Z,100823
2017-11-18T14:22:54.019Z,100830
2017-11-18T14:25:23.000Z,100828
2017-11-18T14:27:51.221Z,100828
2017-11-18T14:30:20.221Z,100832
2017-11-18T14:32:48.462Z,100832
2017-11-18T14:35:16.699Z,100834
2017-11-18T14:37:45.066Z,100833
2017-11-18T14:40:13.322Z,100852
2017-11-18T14:42:41.535Z,100847
2017-11-18T14:45:09.728Z,100851
2017-11-18T14:47:38.030Z,100848
2017-11-18T14:50:07.029Z,100831
2017-11-18T14:52:36.018Z,100830
2017-11-18T14:55:04.981Z,100839
2017-11-18T14:57:33.180Z,100835
2017-11-18T15:00:02.143Z,100846
2017-11-18T15:02:30.359Z,100823
2017-11-18T15:04:58.555Z,100837
2017-11-18T15:07:26.793Z,100830
2017-11-18T15:09:55.790Z,100834
2017-11-18T15:12:23.989Z,100830
2017-11-18T15:15:03.900Z,100830
2017-11-18T15:17:38.425Z,100827
2017-11-18T15:20:12.886Z,100817
2017-11-18T15:22:42.865Z,100820
2017-11-18T15:25:17.312Z,100825
2017-11-18T15:27:51.023Z,100819
2017-11-18T15:30:25.738Z,100818
2017-11-18T15:32:53.962Z,100816
2017-11-18T15:35:24.591Z,100805
2017-11-18T15:40:53.996Z,100816
2017-11-18T15:43:22.210Z,100813
2017-11-18T15:46:01.082Z,100813
2017-11-18T15:48:34.779Z,100814
2017-11-18T15:51:06.743Z,100815
2017-11-18T15:53:40.584Z,100813
2017-11-18T15:59:22.161Z,100807
2017-11-18T16:01:52.216Z,100806
2017-11-18T16:04:25.044Z,100806
2017-11-18T16:07:03.903Z,100803
2017-11-18T16:09:32.108Z,100802
2017-11-18T16:12:01.101Z,100815
2017-11-18T16:14:30.082Z,100810
2017-11-18T16:16:59.084Z,100814
2017-11-18T16:19:28.048Z,100825
2017-11-18T16:21:56.262Z,100828
2017-11-18T16:24:24.464Z,100829
2017-11-18T16:26:52.684Z,100824
2017-11-18T16:29:21.682Z,100818
2017-11-18T16:31:50.666Z,100827
2017-11-18T16:34:19.651Z,100826
2017-11-18T16:36:47.857Z,100829
2017-11-18T16:39:16.157Z,100820
2017-11-18T16:41:44.381Z,100829
2017-11-18T16:44:13.463Z,100827
2017-11-18T16:46:41.707Z,100821
2017-11-18T16:49:09.941Z,100835
2017-11-18T16:51:38.171Z,100839
2017-11-18T16:54:06.643Z,100835
2017-11-18T16:56:34.844Z,100838
2017-11-18T16:59:03.080Z,100843
2017-11-18T17:01:31.584Z,100836
2017-11-18T17:03:59.797Z,100844
2017-11-18T17:06:28.760Z,100850
2017-11-18T17:08:57.026Z,100848
2017-11-18T17:11:25.325Z,100844
2017-11-18T17:13:54.319Z,100844
2017-11-18T17:16:23.296Z,100844
2017-11-18T17:18:51.508Z,100851
2017-11-18T17:21:19.707Z,100843
2017-11-18T17:23:47.932Z,100837
2017-11-18T17:26:17.089Z,100837
2017-11-18T17:28:45.311Z,100836
2017-11-18T17:31:14.342Z,100844
2017-11-18T17:33:42.547Z,100828
2017-11-18T17:36:10.758Z,100827
2017-11-18T17:38:38.978Z,100824
2017-11-18T17:41:07.188Z,100822
2017-11-18T17:43:36.184Z,100820
2017-11-18T17:46:04.384Z,100832
2017-11-18T17:48:32.582Z,100822
2017-11-18T17:51:00.796Z,100818
2017-11-18T17:53:28.989Z,100809
2017-11-18T17:55:57.996Z,100822
2017-11-18T17:58:26.189Z,100823
2017-11-18T18:00:54.412Z,100814
2017-11-18T18:03:23.364Z,100807
2017-11-18T18:05:51.595Z,100807
2017-11-18T18:08:19.938Z,100805
2017-11-18T18:10:48.194Z,100818
2017-11-18T18:13:16.444Z,100817
2017-11-18T18:15:44.642Z,100817
2017-11-18T18:18:12.975Z,100804
2017-11-18T18:20:41.225Z,100814
2017-11-18T18:23:09.451Z,100818
2017-11-18T18:25:37.692Z,100818
2017-11-18T18:28:06.667Z,100813
2017-11-18T18:30:35.676Z,100813
2017-11-18T18:33:03.939Z,100818
2017-11-18T18:35:32.928Z,100808
2017-11-18T18:38:01.927Z,100804
2017-11-18T18:40:30.940Z,100793
2017-11-18T18:42:59.152Z,100799
2017-11-18T18:45:27.369Z,100792
2017-11-18T18:47:56.531Z,100800
2017-11-18T18:50:24.844Z,100791
2017-11-18T18:52:53.846Z,100808
2017-11-18T18:55:22.824Z,100808
2017-11-18T18:57:51.858Z,100814
2017-11-18T19:00:20.119Z,100814
2017-11-18T19:02:48.349Z,100819
2017-11-18T19:05:16.529Z,100800
2017-11-18T19:07:44.819Z,100801
2017-11-18T19:10:13.871Z,100813
2017-11-18T19:12:42.145Z,100816
2017-11-18T19:15:10.392Z,100807
2017-11-18T19:17:38.593Z,100818
2017-11-18T19:20:06.834Z,100829
2017-11-18T19:22:35.094Z,100836
2017-11-18T19:25:03.312Z,100829
2017-11-18T19:27:31.579Z,100822
2017-11-18T19:29:59.820Z,100819
2017-11-18T19:32:28.084Z,100820
2017-11-18T19:34:57.084Z,100822
2017-11-18T19:37:26.166Z,100814
2017-11-18T19:39:55.145Z,100832
2017-11-18T19:42:23.388Z,100828
2017-11-18T19:44:51.645Z,100836
2017-11-18T19:47:19.875Z,100832
2017-11-18T19:49:48.846Z,100839
2017-11-18T19:52:17.131Z,100827
2017-11-18T19:54:45.381Z,100825
2017-11-18T19:57:13.676Z,100805
2017-11-18T19:59:42.709Z,100818
2017-11-18T20:02:10.952Z,100824
2017-11-18T20:04:39.180Z,100820
2017-11-18T20:07:07.395Z,100803
2017-11-18T20:09:35.653Z,100802
2017-11-18T20:12:03.880Z,100816
2017-11-18T20:14:32.127Z,100821
2017-11-18T20:17:01.148Z,100810
2017-11-18T20:19:29.387Z,100792
2017-11-18T20:21:57.598Z,100790
2017-11-18T20:24:25.848Z,100784
2017-11-18T20:26:54.830Z,100773
2017-11-18T20:29:23.043Z,100783
2017-11-18T20:31:51.256Z,100787
2017-11-18T20:34:19.511Z,100787
2017-11-18T20:36:47.809Z,100794
2017-11-18T20:39:16.043Z,100802
2017-11-18T20:41:44.309Z,100794
2017-11-18T20:44:12.612Z,100793
2017-11-18T20:46:40.819Z,100794
2017-11-18T20:49:09.078Z,100795
2017-11-18T20:51:37.308Z,100783
2017-11-18T20:54:05.527Z,100781
2017-11-18T20:56:33.767Z,100787
2017-11-18T20:59:01.984Z,100785
2017-11-18T21:01:30.243Z,100792
2017-11-18T21:03:58.453Z,100791
2017-11-18T21:06:27.494Z,100789
2017-11-18T21:08:55.719Z,100805
2017-11-18T21:11:23.916Z,100802
2017-11-18T21:13:52.160Z,100807
2017-11-18T21:16:20.386Z,100805
2017-11-18T21:18:48.625Z,100798
2017-11-18T21:21:17.604Z,100801
2017-11-18T21:23:45.840Z,100798
2017-11-18T21:26:14.187Z,100801
2017-11-18T21:28:42.417Z,100809
2017-11-18T21:31:10.764Z,100808
2017-11-18T21:33:39.036Z,100809
2017-11-18T21:36:07.288Z,100800
2017-11-18T21:38:35.531Z,100804
2017-11-18T21:41:03.763Z,100788
2017-11-18T21:43:31.997Z,100782
2017-11-18T21:46:00.960Z,100776
2017-11-18T21:48:29.168Z,100792
2017-11-18T21:50:58.141Z,100789
2017-11-18T21:53:27.129Z,100788
2017-11-18T21:55:56.140Z,100791
2017-11-18T21:58:25.184Z,100797
2017-11-18T22:00:53.451Z,100797
2017-11-18T22:03:21.717Z,100791
2017-11-18T22:05:49.983Z,100784
2017-11-18T22:08:18.198Z,100773
2017-11-18T22:10:46.431Z,100773
2017-11-18T22:13:14.677Z,100795
2017-11-18T22:15:43.699Z,100793
2017-11-18T22:18:11.979Z,100774
2017-11-18T22:20:40.240Z,100757
2017-11-18T22:23:08.430Z,100764
2017-11-18T22:25:36.750Z,100747
2017-11-18T22:28:04.955Z,100750
2017-11-18T22:30:33.161Z,100753
2017-11-18T22:33:01.400Z,100749
2017-11-18T22:35:30.437Z,100752
2017-11-18T22:37:58.660Z,100749
2017-11-18T22:40:27.675Z,100742
2017-11-18T22:42:55.866Z,100734
2017-11-18T22:45:24.074Z,100739
2017-11-18T22:47:52.289Z,100746
2017-11-18T22:50:20.496Z,100741
2017-11-18T22:52:48.767Z,100727
2017-11-18T22:55:16.983Z,100719
2017-11-18T22:57:45.191Z,100718
2017-11-18T23:00:13.482Z,100708
2017-11-18T23:02:41.710Z,100702
2017-11-18T23:05:10.683Z,100700
2017-11-18T23:07:38.913Z,100700
2017-11-18T23:10:07.134Z,100682
2017-11-18T23:12:35.342Z,100684
2017-11-18T23:15:03.580Z,100680
2017-11-18T23:17:31.807Z,100669
2017-11-18T23:20:00.028Z,100656
2017-11-18T23:22:28.278Z,100663
2017-11-18T23:24:56.479Z,100654
2017-11-18T23:27:24.691Z,100656
2017-11-18T23:29:52.940Z,100655
2017-11-18T23:32:21.919Z,100654
2017-11-18T23:34:50.241Z,100653
2017-11-18T23:37:18.444Z,100656
2017-11-18T23:39:46.661Z,100641
2017-11-18T23:42:15.779Z,100635
2017-11-18T23:44:44.022Z,100647
2017-11-18T23:47:13.077Z,100642
2017-11-18T23:49:41.341Z,100639
2017-11-18T23:52:09.563Z,100639
2017-11-18T23:54:38.554Z,100633
2017-11-18T23:57:06.749Z,100617
2017-11-18T23:59:34.979Z,100627
